createdAt,value
2023-01-17T00:00:38.341Z,83.98
2023-01-17T00:05:19.714Z,83.63
2023-01-17T00:09:45.206Z,83.96
2023-01-17T00:13:53.263Z,84.20
2023-01-17T00:18:01.613Z,84.36
2023-01-17T00:22:34.388Z,83.94
2023-01-17T00:26:56.531Z,84.19
2023-01-17T00:31:03.184Z,84.38
2023-01-17T00:35:10.545Z,83.86
2023-01-17T00:39:17.019Z,84.17
2023-01-17T00:43:43.961Z,84.04
2023-01-17T00:48:10.111Z,84.05
2023-01-17T00:52:35.953Z,84.01
2023-01-17T00:57:03.661Z,83.99
2023-01-17T01:01:29.503Z,83.65
2023-01-17T01:05:55.637Z,83.67
2023-01-17T01:10:24.939Z,83.60
2023-01-17T01:14:50.577Z,83.54
2023-01-17T01:19:15.946Z,83.19
2023-01-17T01:23:41.244Z,83.01
2023-01-17T01:28:06.142Z,82.71
2023-01-17T01:32:31.930Z,82.80
2023-01-17T01:36:40.655Z,82.88
2023-01-17T01:40:51.768Z,82.73
2023-01-17T01:45:00.366Z,82.37
2023-01-17T01:49:10.256Z,82.11
2023-01-17T01:53:19.386Z,81.87
2023-01-17T01:57:29.715Z,81.77
2023-01-17T02:01:37.862Z,81.53
2023-01-17T02:05:46.334Z,81.48
2023-01-17T02:09:54.961Z,81.53
2023-01-17T02:14:04.094Z,81.61
2023-01-17T02:18:16.008Z,81.28
2023-01-17T02:22:52.315Z,81.17
2023-01-17T02:27:08.544Z,81.06
2023-01-17T02:31:19.353Z,80.83
2023-01-17T02:35:35.184Z,80.83
2023-01-17T02:39:44.888Z,80.72
2023-01-17T02:43:53.567Z,80.70
2023-01-17T02:48:00.775Z,80.58
2023-01-17T02:52:28.645Z,80.64
2023-01-17T02:56:48.562Z,80.60
2023-01-17T03:01:08.575Z,79.91
2023-01-17T03:05:23.792Z,80.06
2023-01-17T03:09:32.441Z,79.60
2023-01-17T03:13:41.238Z,79.80
2023-01-17T03:17:52.540Z,79.50
2023-01-17T03:22:01.271Z,79.53
2023-01-17T03:26:09.091Z,79.61
2023-01-17T03:30:17.823Z,79.31
2023-01-17T03:34:26.773Z,79.35
2023-01-17T03:38:34.867Z,79.30
2023-01-17T03:42:42.889Z,78.78
2023-01-17T03:46:50.913Z,78.85
2023-01-17T03:50:58.591Z,78.97
2023-01-17T03:55:07.974Z,78.55
2023-01-17T03:59:16.025Z,78.58
2023-01-17T04:03:23.688Z,78.41
2023-01-17T04:07:32.521Z,78.47
2023-01-17T04:11:40.196Z,78.39
2023-01-17T04:15:50.397Z,78.68
2023-01-17T04:19:58.263Z,78.51
2023-01-17T04:24:06.429Z,78.69
2023-01-17T04:28:14.229Z,78.60
2023-01-17T04:32:22.561Z,78.81
2023-01-17T04:36:30.587Z,78.93
2023-01-17T04:40:38.728Z,78.89
2023-01-17T04:44:46.191Z,78.81
2023-01-17T04:48:53.687Z,78.78
2023-01-17T04:53:01.576Z,78.86
2023-01-17T04:57:09.771Z,78.65
2023-01-17T05:01:18.262Z,78.50
2023-01-17T05:05:26.526Z,78.41
2023-01-17T05:09:34.440Z,78.04
2023-01-17T05:13:42.363Z,78.06
2023-01-17T05:17:50.142Z,77.73
2023-01-17T05:22:04.240Z,77.59
2023-01-17T05:26:13.083Z,77.61
2023-01-17T05:30:22.201Z,77.08
2023-01-17T05:34:29.728Z,76.63
2023-01-17T05:38:38.527Z,76.60
2023-01-17T05:42:49.672Z,76.39
2023-01-17T05:46:57.934Z,76.06
2023-01-17T05:51:06.349Z,76.00
2023-01-17T05:55:14.184Z,76.01
2023-01-17T05:59:32.373Z,75.86
2023-01-17T06:03:44.739Z,75.82
2023-01-17T06:07:52.766Z,76.08
2023-01-17T06:12:00.155Z,75.81
2023-01-17T06:16:08.276Z,75.56
2023-01-17T06:20:16.187Z,75.40
2023-01-17T06:24:24.332Z,75.31
2023-01-17T06:28:33.010Z,74.54
2023-01-17T06:32:40.351Z,74.63
2023-01-17T06:36:48.033Z,74.43
2023-01-17T06:41:00.499Z,73.97
2023-01-17T06:45:11.885Z,73.71
2023-01-17T06:49:20.588Z,73.46
2023-01-17T06:53:28.765Z,73.36
2023-01-17T06:57:36.555Z,73.33
2023-01-17T07:01:45.057Z,73.34
2023-01-17T07:05:53.529Z,73.12
2023-01-17T07:10:03.687Z,73.64
2023-01-17T07:14:16.766Z,73.09
2023-01-17T07:18:24.642Z,73.17
2023-01-17T07:22:32.069Z,72.99
2023-01-17T07:26:40.663Z,73.09
2023-01-17T07:30:48.782Z,72.83
2023-01-17T07:34:57.747Z,72.75
2023-01-17T07:39:06.480Z,72.92
2023-01-17T07:43:17.532Z,72.58
2023-01-17T07:47:25.473Z,72.78
2023-01-17T07:51:33.157Z,72.82
2023-01-17T07:55:40.895Z,72.57
2023-01-17T07:59:51.072Z,72.18
2023-01-17T08:03:59.045Z,72.34
2023-01-17T08:08:07.746Z,72.17
2023-01-17T08:12:15.742Z,71.86
2023-01-17T08:16:23.468Z,72.16
2023-01-17T08:20:31.314Z,71.96
2023-01-17T08:24:38.987Z,71.94
2023-01-17T08:28:47.133Z,71.98
2023-01-17T08:32:55.465Z,71.65
2023-01-17T08:37:02.954Z,71.65
2023-01-17T08:41:10.527Z,71.06
2023-01-17T08:45:18.462Z,70.89
2023-01-17T08:49:26.127Z,70.90
2023-01-17T08:53:33.496Z,70.49
2023-01-17T08:57:41.742Z,69.71
2023-01-17T09:01:50.241Z,69.60
2023-01-17T09:06:05.774Z,68.41
2023-01-17T09:10:14.782Z,68.64
2023-01-17T09:14:22.653Z,68.46
2023-01-17T09:18:31.668Z,68.14
2023-01-17T09:22:39.836Z,68.02
2023-01-17T09:26:47.792Z,67.09
2023-01-17T09:30:55.945Z,66.13
2023-01-17T09:35:05.564Z,65.85
2023-01-17T09:39:15.507Z,65.34
2023-01-17T09:43:28.384Z,64.51
2023-01-17T09:47:43.373Z,64.43
2023-01-17T09:51:51.492Z,64.56
2023-01-17T09:56:02.375Z,63.91
2023-01-17T10:00:17.323Z,63.91
2023-01-17T10:04:49.503Z,63.64
2023-01-17T10:09:09.184Z,63.50
2023-01-17T10:13:29.150Z,63.11
2023-01-17T10:17:45.476Z,63.03
2023-01-17T10:22:04.512Z,62.96
2023-01-17T10:26:15.409Z,63.01
2023-01-17T10:30:27.929Z,63.47
2023-01-17T10:34:38.389Z,63.25
2023-01-17T10:38:49.687Z,63.69
2023-01-17T10:43:01.213Z,63.46
2023-01-17T10:47:16.615Z,63.56
2023-01-17T10:51:35.249Z,63.97
2023-01-17T10:55:48.035Z,63.98
2023-01-17T10:59:57.557Z,63.90
2023-01-17T11:04:05.465Z,64.04
2023-01-17T11:08:15.475Z,63.84
2023-01-17T11:12:31.457Z,64.03
2023-01-17T11:16:39.938Z,64.55
2023-01-17T11:20:48.430Z,63.71
2023-01-17T11:24:56.819Z,63.66
2023-01-17T11:29:24.918Z,63.19
2023-01-17T11:33:45.795Z,63.19
2023-01-17T11:38:05.601Z,62.53
2023-01-17T11:42:35.003Z,62.47
2023-01-17T11:46:43.069Z,61.73
2023-01-17T11:50:58.640Z,61.99
2023-01-17T11:55:06.435Z,61.75
2023-01-17T11:59:29.772Z,61.81
2023-01-17T12:04:11.210Z,61.50
2023-01-17T12:08:28.239Z,60.63
2023-01-17T12:13:07.361Z,60.66
2023-01-17T12:17:24.914Z,60.52
2023-01-17T12:21:42.972Z,60.09
2023-01-17T12:26:00.887Z,60.24
2023-01-17T12:30:19.818Z,59.70
2023-01-17T12:34:31.901Z,59.67
2023-01-17T12:38:41.075Z,59.72
2023-01-17T12:42:54.201Z,59.87
2023-01-17T12:47:04.661Z,60.09
2023-01-17T12:51:19.169Z,60.24
2023-01-17T12:55:34.100Z,60.06
2023-01-17T12:59:48.110Z,60.58
2023-01-17T13:04:04.830Z,60.30
2023-01-17T13:08:21.242Z,59.90
2023-01-17T13:12:33.092Z,59.48
2023-01-17T13:16:43.736Z,59.63
2023-01-17T13:21:16.198Z,59.08
2023-01-17T13:25:35.980Z,59.18
2023-01-17T13:29:53.953Z,59.63
2023-01-17T13:34:25.058Z,59.39
2023-01-17T13:38:42.526Z,58.98
2023-01-17T13:42:55.436Z,58.89
2023-01-17T13:47:06.583Z,58.84
2023-01-17T13:51:14.479Z,58.25
2023-01-17T13:55:48.207Z,57.59
2023-01-17T13:59:57.619Z,57.20
2023-01-17T14:04:09.579Z,57.21
2023-01-17T14:08:20.885Z,57.34
2023-01-17T14:12:33.767Z,57.08
2023-01-17T14:16:44.883Z,57.33
2023-01-17T14:21:10.942Z,57.47
2023-01-17T14:25:21.151Z,58.45
2023-01-17T14:29:52.589Z,58.31
2023-01-17T14:34:15.240Z,58.34
2023-01-17T14:38:25.370Z,58.11
2023-01-17T14:42:34.395Z,58.03
2023-01-17T14:46:41.943Z,57.35
2023-01-17T14:50:51.915Z,57.06
2023-01-17T14:54:59.485Z,56.74
2023-01-17T14:59:17.342Z,55.88
2023-01-17T15:03:25.932Z,55.55
2023-01-17T15:07:33.825Z,55.22
2023-01-17T15:11:42.430Z,55.49
2023-01-17T15:15:50.099Z,55.26
2023-01-17T15:20:05.050Z,55.75
2023-01-17T15:24:18.695Z,55.92
2023-01-17T15:28:27.116Z,56.39
2023-01-17T15:32:35.298Z,56.68
2023-01-17T15:36:43.253Z,57.03
2023-01-17T15:40:50.929Z,57.14
2023-01-17T15:45:00.268Z,57.78
2023-01-17T15:49:22.973Z,57.84
2023-01-17T15:53:35.942Z,57.99
2023-01-17T15:57:47.624Z,58.34
2023-01-17T16:01:59.646Z,58.49
2023-01-17T16:06:45.808Z,59.14
2023-01-17T16:10:58.230Z,59.10
2023-01-17T16:15:12.751Z,59.17
2023-01-17T16:19:21.559Z,59.45
2023-01-17T16:23:30.848Z,59.67
2023-01-17T16:27:39.673Z,59.51
2023-01-17T16:31:48.116Z,59.48
2023-01-17T16:35:56.228Z,59.35
2023-01-17T16:40:05.711Z,60.00
2023-01-17T16:44:13.833Z,60.82
2023-01-17T16:48:22.671Z,61.10
2023-01-17T16:52:30.497Z,61.13
2023-01-17T16:56:38.438Z,61.27
2023-01-17T17:00:46.525Z,61.29
2023-01-17T17:04:54.438Z,60.96
2023-01-17T17:09:03.923Z,60.95
2023-01-17T17:13:12.926Z,61.13
2023-01-17T17:17:22.227Z,61.55
2023-01-17T17:21:32.000Z,62.24
2023-01-17T17:25:39.505Z,62.71
2023-01-17T17:29:46.933Z,62.73
2023-01-17T17:33:58.529Z,63.00
2023-01-17T17:38:07.095Z,62.74
2023-01-17T17:42:15.920Z,63.22
2023-01-17T17:46:25.508Z,63.45
2023-01-17T17:50:33.292Z,63.37
2023-01-17T17:54:41.491Z,63.94
2023-01-17T17:58:49.966Z,64.39
2023-01-17T18:02:57.891Z,64.50
2023-01-17T18:07:07.413Z,64.83
2023-01-17T18:11:18.680Z,65.21
2023-01-17T18:15:26.540Z,65.36
2023-01-17T18:19:34.623Z,65.44
2023-01-17T18:23:43.893Z,65.86
2023-01-17T18:27:52.512Z,66.29
2023-01-17T18:32:00.752Z,66.73
2023-01-17T18:36:13.763Z,67.09
2023-01-17T18:40:23.685Z,67.16
2023-01-17T18:44:31.432Z,67.16
2023-01-17T18:48:40.563Z,67.60
2023-01-17T18:52:49.417Z,67.98
2023-01-17T18:56:59.364Z,68.00
2023-01-17T19:01:12.971Z,68.27
2023-01-17T19:05:21.766Z,68.61
2023-01-17T19:09:32.465Z,68.69
2023-01-17T19:13:41.933Z,68.71
2023-01-17T19:17:52.563Z,68.74
2023-01-17T19:22:00.920Z,68.72
2023-01-17T19:26:10.000Z,69.49
2023-01-17T19:30:19.561Z,69.48
2023-01-17T19:34:28.108Z,69.59
2023-01-17T19:38:38.123Z,69.63
2023-01-17T19:42:46.189Z,69.82
2023-01-17T19:46:54.640Z,70.17
2023-01-17T19:51:09.563Z,70.69
2023-01-17T19:55:22.238Z,70.92
2023-01-17T19:59:30.222Z,70.77
2023-01-17T20:03:39.864Z,70.53
2023-01-17T20:07:48.712Z,70.54
2023-01-17T20:11:56.886Z,70.48
2023-01-17T20:16:14.065Z,70.65
2023-01-17T20:20:23.020Z,70.70
2023-01-17T20:24:30.931Z,71.03
2023-01-17T20:28:39.896Z,71.34
2023-01-17T20:32:48.689Z,71.54
2023-01-17T20:36:59.995Z,71.92
2023-01-17T20:41:07.539Z,72.06
2023-01-17T20:45:16.335Z,72.07
2023-01-17T20:49:24.096Z,72.26
2023-01-17T20:53:32.777Z,72.99
2023-01-17T20:57:41.682Z,73.31
2023-01-17T21:01:50.496Z,73.32
2023-01-17T21:06:03.138Z,73.07
2023-01-17T21:10:12.929Z,73.11
2023-01-17T21:14:21.906Z,73.24
2023-01-17T21:18:32.258Z,73.48
2023-01-17T21:22:40.399Z,73.64
2023-01-17T21:26:51.773Z,73.92
2023-01-17T21:31:00.490Z,73.96
2023-01-17T21:35:09.708Z,74.24
2023-01-17T21:39:19.973Z,74.59
2023-01-17T21:43:28.253Z,74.95
2023-01-17T21:47:36.352Z,75.16
2023-01-17T21:52:02.192Z,74.89
2023-01-17T21:56:30.450Z,74.78
2023-01-17T22:00:39.038Z,74.48
2023-01-17T22:04:46.822Z,74.80
2023-01-17T22:08:54.711Z,74.99
2023-01-17T22:13:06.952Z,75.17
2023-01-17T22:17:14.988Z,75.05
2023-01-17T22:21:23.759Z,75.07
2023-01-17T22:25:32.555Z,75.03
2023-01-17T22:29:40.755Z,75.30
2023-01-17T22:33:53.021Z,75.29
2023-01-17T22:38:01.933Z,75.36
2023-01-17T22:42:10.154Z,75.51
2023-01-17T22:46:23.054Z,75.31
2023-01-17T22:50:31.107Z,75.52
2023-01-17T22:54:39.139Z,75.83
2023-01-17T22:58:48.999Z,75.82
2023-01-17T23:02:56.984Z,76.18
2023-01-17T23:07:04.713Z,76.59
2023-01-17T23:11:43.956Z,76.95
2023-01-17T23:16:09.910Z,77.02
2023-01-17T23:20:18.145Z,77.04
2023-01-17T23:24:26.159Z,77.42
2023-01-17T23:28:33.681Z,77.75
2023-01-17T23:32:44.673Z,78.03
2023-01-17T23:36:52.292Z,78.44
2023-01-17T23:41:26.349Z,78.55
2023-01-17T23:45:33.937Z,78.84
2023-01-17T23:49:43.534Z,78.67
2023-01-17T23:53:57.343Z,78.93
2023-01-17T23:58:05.285Z,79.09
